createdAt,value
2023-08-07T00:02:46.444Z,99028.38
2023-08-07T00:07:48.486Z,99031.72
2023-08-07T00:12:50.854Z,99032.34
2023-08-07T00:17:52.815Z,99033.38
2023-08-07T00:22:54.520Z,99026.47
2023-08-07T00:27:56.174Z,99035.88
2023-08-07T00:32:58.294Z,99040.25
2023-08-07T00:38:00.024Z,99041.31
2023-08-07T00:43:03.389Z,99039.63
2023-08-07T00:48:06.369Z,99044.44
2023-08-07T00:53:08.263Z,99039.41
2023-08-07T00:58:10.082Z,99037.09
2023-08-07T01:03:13.189Z,99038.56
2023-08-07T01:08:15.555Z,99049.22
2023-08-07T01:13:30.585Z,99036.91
2023-08-07T01:18:32.405Z,99038.56
2023-08-07T01:23:34.133Z,99035.22
2023-08-07T01:28:39.616Z,99026.88
2023-08-07T01:33:48.660Z,99036.28
2023-08-07T01:38:51.734Z,99040.28
2023-08-07T01:43:53.557Z,99036.72
2023-08-07T01:48:55.743Z,99033.78
2023-08-07T01:53:57.404Z,99047.19
2023-08-07T01:58:59.085Z,99041.13
2023-08-07T02:04:00.895Z,99057.00
2023-08-07T02:09:02.605Z,99051.34
2023-08-07T02:14:04.309Z,99048.22
2023-08-07T02:19:06.098Z,99040.06
2023-08-07T02:24:08.346Z,99047.16
2023-08-07T02:29:10.273Z,99056.16
2023-08-07T02:34:12.025Z,99046.97
2023-08-07T02:39:14.904Z,99048.41
2023-08-07T02:44:18.526Z,99052.59
2023-08-07T02:49:20.177Z,99056.56
2023-08-07T02:54:21.867Z,99050.69
2023-08-07T02:59:23.592Z,99051.97
2023-08-07T03:04:25.385Z,99055.53
2023-08-07T03:09:27.083Z,99055.31
2023-08-07T03:14:28.831Z,99096.47
2023-08-07T03:19:30.514Z,99109.94
2023-08-07T03:24:32.196Z,99119.84
2023-08-07T03:29:34.045Z,99124.69
2023-08-07T03:34:36.016Z,99139.00
2023-08-07T03:39:37.957Z,99133.72
2023-08-07T03:44:39.854Z,99144.56
2023-08-07T03:49:41.697Z,99155.59
2023-08-07T03:54:43.451Z,99165.84
2023-08-07T03:59:45.214Z,99158.81
2023-08-07T04:04:47.592Z,99156.34
2023-08-07T04:09:49.278Z,99163.28
2023-08-07T04:14:50.954Z,99163.75
2023-08-07T04:19:52.634Z,99166.28
2023-08-07T04:24:54.299Z,99171.78
2023-08-07T04:29:56.102Z,99175.34
2023-08-07T04:35:00.468Z,99183.53
2023-08-07T04:40:02.256Z,99193.16
2023-08-07T04:45:04.137Z,99190.69
2023-08-07T04:50:06.140Z,99196.75
2023-08-07T04:55:08.138Z,99192.81
2023-08-07T05:00:10.752Z,99201.16
2023-08-07T05:05:12.513Z,99201.00
2023-08-07T05:10:14.368Z,99206.88
2023-08-07T05:15:16.070Z,99205.84
2023-08-07T05:20:18.679Z,99202.94
2023-08-07T05:25:20.413Z,99207.97
2023-08-07T05:30:22.102Z,99219.94
2023-08-07T05:35:23.879Z,99216.84
2023-08-07T05:40:27.077Z,99225.84
2023-08-07T05:45:28.830Z,99224.38
2023-08-07T05:50:30.560Z,99231.09
2023-08-07T05:55:32.343Z,99244.03
2023-08-07T06:00:34.146Z,99243.22
2023-08-07T06:05:36.281Z,99244.88
2023-08-07T06:10:38.771Z,99245.13
2023-08-07T06:15:40.636Z,99254.75
2023-08-07T06:20:42.278Z,99272.50
2023-08-07T06:25:44.186Z,99277.13
2023-08-07T06:30:45.971Z,99295.31
2023-08-07T06:35:48.029Z,99295.13
2023-08-07T06:40:49.718Z,99303.69
2023-08-07T06:45:51.827Z,99296.78
2023-08-07T06:50:53.564Z,99309.06
2023-08-07T06:55:57.642Z,99311.56
2023-08-07T07:00:59.774Z,99315.75
2023-08-07T07:06:01.624Z,99313.59
2023-08-07T07:11:03.925Z,99323.41
2023-08-07T07:16:05.708Z,99319.75
2023-08-07T07:21:07.494Z,99323.81
2023-08-07T07:26:09.300Z,99321.19
2023-08-07T07:31:12.760Z,99335.84
2023-08-07T07:36:17.103Z,99334.03
2023-08-07T07:41:19.772Z,99346.25
2023-08-07T07:46:21.445Z,99349.59
2023-08-07T07:51:23.154Z,99351.19
2023-08-07T07:56:25.087Z,99363.09
2023-08-07T08:01:26.737Z,99366.22
2023-08-07T08:06:28.492Z,99371.50
2023-08-07T08:11:30.173Z,99369.22
2023-08-07T08:16:31.883Z,99385.06
2023-08-07T08:21:33.623Z,99388.22
2023-08-07T08:26:35.728Z,99393.53
2023-08-07T08:31:37.568Z,99405.50
2023-08-07T08:36:40.192Z,99404.06
2023-08-07T08:41:43.977Z,99402.25
2023-08-07T08:46:46.800Z,99389.81
2023-08-07T08:51:48.693Z,99400.38
2023-08-07T08:56:50.736Z,99411.44
2023-08-07T09:01:53.828Z,99410.91
2023-08-07T09:06:55.962Z,99425.25
2023-08-07T09:11:58.628Z,99425.63
2023-08-07T09:17:02.124Z,99423.41
2023-08-07T09:22:04.031Z,99429.25
2023-08-07T09:27:08.824Z,99418.16
2023-08-07T09:32:13.618Z,99432.75
2023-08-07T09:37:15.392Z,99427.97
2023-08-07T09:42:17.758Z,99416.69
2023-08-07T09:47:20.447Z,99433.03
2023-08-07T09:52:22.278Z,99441.97
2023-08-07T09:57:23.944Z,99440.13
2023-08-07T10:02:26.070Z,99424.88
2023-08-07T10:07:27.971Z,99444.53
2023-08-07T10:12:29.881Z,99442.38
2023-08-07T10:17:32.988Z,99440.81
2023-08-07T10:22:37.833Z,99444.06
2023-08-07T10:27:41.496Z,99457.44
2023-08-07T10:32:44.088Z,99468.25
2023-08-07T10:37:46.477Z,99448.28
2023-08-07T10:43:00.529Z,99451.44
2023-08-07T10:48:19.291Z,99448.81
2023-08-07T10:53:23.181Z,99447.53
2023-08-07T10:58:36.119Z,99453.53
2023-08-07T11:03:37.846Z,99458.44
2023-08-07T11:08:39.746Z,99444.38
2023-08-07T11:13:41.583Z,99448.34
2023-08-07T11:18:43.747Z,99453.00
2023-08-07T11:23:46.815Z,99446.78
2023-08-07T11:28:49.078Z,99452.91
2023-08-07T11:33:55.861Z,99459.78
2023-08-07T11:38:57.746Z,99464.63
2023-08-07T11:44:00.845Z,99487.09
2023-08-07T11:49:04.878Z,99477.06
2023-08-07T11:54:07.055Z,99485.91
2023-08-07T11:59:08.783Z,99480.72
2023-08-07T12:04:11.398Z,99478.03
2023-08-07T12:09:14.287Z,99490.66
2023-08-07T12:14:18.364Z,99489.63
2023-08-07T12:19:20.289Z,99489.97
2023-08-07T12:24:22.267Z,99483.13
2023-08-07T12:29:25.695Z,99487.19
2023-08-07T12:44:36.534Z,99487.00
2023-08-07T12:49:38.206Z,99487.69
2023-08-07T12:54:39.901Z,99488.09
2023-08-07T12:59:41.572Z,99481.41
2023-08-07T13:04:43.243Z,99523.88
2023-08-07T13:09:45.122Z,99505.81
2023-08-07T13:14:46.798Z,99513.94
2023-08-07T13:19:48.481Z,99505.63
2023-08-07T13:24:50.146Z,99501.50
2023-08-07T13:29:52.000Z,99513.50
2023-08-07T13:34:54.134Z,99510.09
2023-08-07T13:39:56.883Z,99529.56
2023-08-07T13:44:59.298Z,99531.44
2023-08-07T13:50:02.423Z,99535.72
2023-08-07T13:55:04.502Z,99540.78
2023-08-07T14:00:06.702Z,99550.88
2023-08-07T14:05:08.426Z,99578.34
2023-08-07T14:10:10.241Z,99649.31
2023-08-07T14:15:13.020Z,99637.41
2023-08-07T14:20:14.730Z,99645.28
2023-08-07T14:25:16.486Z,99651.47
2023-08-07T14:30:18.150Z,99645.69
2023-08-07T14:35:19.978Z,99638.72
2023-08-07T14:40:21.682Z,99634.91
2023-08-07T14:45:24.893Z,99640.72
2023-08-07T14:50:26.666Z,99652.31
2023-08-07T14:55:28.560Z,99641.53
2023-08-07T15:00:30.308Z,99630.25
2023-08-07T15:05:32.019Z,99637.22
2023-08-07T15:10:34.236Z,99658.75
2023-08-07T15:15:36.884Z,99674.00
2023-08-07T15:20:38.564Z,99679.31
2023-08-07T15:25:40.364Z,99688.13
2023-08-07T15:30:48.306Z,99674.03
2023-08-07T15:35:52.691Z,99655.84
2023-08-07T15:40:54.503Z,99654.06
2023-08-07T15:45:56.288Z,99665.84
2023-08-07T15:50:57.975Z,99691.22
2023-08-07T15:55:59.648Z,99725.28
2023-08-07T16:01:01.367Z,99737.25
2023-08-07T16:06:03.124Z,99745.19
2023-08-07T16:11:05.526Z,99757.63
2023-08-07T16:16:07.270Z,99742.69
2023-08-07T16:21:09.840Z,99745.78
2023-08-07T16:26:12.101Z,99746.72
2023-08-07T16:31:15.027Z,99751.59
2023-08-07T16:36:16.736Z,99741.84
2023-08-07T16:41:18.408Z,99753.25
2023-08-07T16:46:20.862Z,99757.06
2023-08-07T16:51:22.559Z,99753.38
2023-08-07T16:56:24.935Z,99756.94
2023-08-07T17:01:26.717Z,99759.56
2023-08-07T17:06:28.481Z,99776.06
2023-08-07T17:11:31.680Z,99802.88
2023-08-07T17:16:33.365Z,99803.91
2023-08-07T17:21:35.057Z,99794.09
2023-08-07T17:26:36.711Z,99794.00
2023-08-07T17:31:38.407Z,99794.63
2023-08-07T17:36:40.274Z,99799.59
2023-08-07T17:41:42.110Z,99795.47
2023-08-07T17:46:44.022Z,99819.06
2023-08-07T17:51:45.755Z,99811.97
2023-08-07T17:56:48.048Z,99824.41
2023-08-07T18:01:49.727Z,99830.75
2023-08-07T18:06:53.442Z,99824.03
2023-08-07T18:11:55.107Z,99829.63
2023-08-07T18:16:57.220Z,99832.44
2023-08-07T18:22:00.687Z,99845.38
2023-08-07T18:27:02.372Z,99856.50
2023-08-07T18:32:05.632Z,99856.41
2023-08-07T18:37:07.370Z,99866.03
2023-08-07T18:42:09.100Z,99866.50
2023-08-07T18:47:10.766Z,99873.91
2023-08-07T18:52:12.459Z,99872.47
2023-08-07T18:57:14.233Z,99875.09
2023-08-07T19:02:15.960Z,99890.72
2023-08-07T19:07:17.706Z,99902.75
2023-08-07T19:12:19.354Z,99906.97
2023-08-07T19:17:20.992Z,99908.66
2023-08-07T19:22:22.780Z,99911.66
2023-08-07T19:27:25.082Z,99920.94
2023-08-07T19:32:27.297Z,99912.31
2023-08-07T19:37:29.067Z,99915.22
2023-08-07T19:42:31.661Z,99918.97
2023-08-07T19:47:36.522Z,99927.66
2023-08-07T19:52:38.764Z,99927.28
2023-08-07T19:57:40.561Z,99919.06
2023-08-07T20:02:42.575Z,99927.03
2023-08-07T20:07:44.244Z,99918.03
2023-08-07T20:12:46.210Z,99938.47
2023-08-07T20:17:49.789Z,99939.78
2023-08-07T20:22:51.633Z,99936.31
2023-08-07T20:27:53.833Z,99941.56
2023-08-07T20:32:55.578Z,99936.97
2023-08-07T20:37:57.385Z,99957.97
2023-08-07T20:43:01.946Z,99959.78
2023-08-07T20:48:03.928Z,99979.81
2023-08-07T20:53:05.824Z,99976.06
2023-08-07T20:58:07.484Z,99978.59
2023-08-07T21:03:09.189Z,99983.19
2023-08-07T21:08:11.019Z,99980.47
2023-08-07T21:13:12.680Z,99983.47
2023-08-07T21:18:14.441Z,99983.09
2023-08-07T21:23:17.067Z,99986.84
2023-08-07T21:28:18.805Z,99986.84
2023-08-07T21:33:20.527Z,99988.25
2023-08-07T21:38:22.204Z,99983.56
2023-08-07T21:43:23.974Z,99988.28
2023-08-07T21:48:25.616Z,99995.97
2023-08-07T21:53:27.306Z,99999.69
2023-08-07T21:58:29.050Z,99997.66
2023-08-07T22:03:32.484Z,99995.78
2023-08-07T22:08:34.282Z,99995.13
2023-08-07T22:13:35.971Z,99999.69
2023-08-07T22:18:38.237Z,100004.84
2023-08-07T22:23:40.747Z,100004.19
2023-08-07T22:28:42.541Z,100011.66
2023-08-07T22:33:44.292Z,100002.66
2023-08-07T22:38:46.011Z,100001.72
2023-08-07T22:43:47.792Z,100006.38
2023-08-07T22:48:49.496Z,100006.44
2023-08-07T22:53:51.337Z,100002.09
2023-08-07T22:58:53.205Z,100000.91
2023-08-07T23:03:54.957Z,100002.13
2023-08-07T23:08:56.733Z,100002.31
2023-08-07T23:13:58.567Z,100005.88
2023-08-07T23:19:00.301Z,100000.78
2023-08-07T23:24:02.108Z,100006.59
2023-08-07T23:29:03.786Z,100001.53
2023-08-07T23:34:05.485Z,99995.63
2023-08-07T23:39:07.201Z,99998.56
2023-08-07T23:44:08.888Z,100000.78
2023-08-07T23:49:10.578Z,100001.44
2023-08-07T23:54:12.505Z,100001.13
2023-08-07T23:59:14.317Z,100008.09
